Time;durP1;ratioP1;P1;durP2;ratioP2;P2;SDS_P1;SDS_P2;PMS_P1;PMS_P2;Temp;Humidity;BMP_temperature;BMP_pressure;BME280_temperature;BME280_humidity;BME280_pressure;Samples;Min_cycle;Max_cycle;Signal;HPM_P1;HPM_P2
2023/06/27 00:01:45;;;;;;;3.80;1.40;;;18.10;77.30;;;;;;5051905;28;20959;-75
2023/06/27 00:04:11;;;;;;;3.23;1.30;;;18.10;77.20;;;;;;5052602;28;20588;-74
2023/06/27 00:06:42;;;;;;;3.20;1.47;;;18.00;77.20;;;;;;5051820;28;20890;-74
2023/06/27 00:09:09;;;;;;;3.37;1.23;;;18.00;77.30;;;;;;5060506;28;20209;-75
2023/06/27 00:11:36;;;;;;;4.00;1.33;;;17.90;78.70;;;;;;5061363;28;20423;-75
2023/06/27 00:14:04;;;;;;;3.60;1.83;;;18.00;78.20;;;;;;5051778;28;20420;-74
2023/06/27 00:16:33;;;;;;;3.97;0.93;;;17.90;78.60;;;;;;5052048;28;20438;-74
2023/06/27 00:19:02;;;;;;;4.20;1.33;;;17.90;78.80;;;;;;5062984;28;20428;-74
2023/06/27 00:21:29;;;;;;;5.77;1.33;;;17.90;78.40;;;;;;5045024;28;20446;-74
2023/06/27 00:23:59;;;;;;;3.67;1.33;;;17.90;78.50;;;;;;5047356;28;20504;-74
2023/06/27 00:26:25;;;;;;;2.83;1.00;;;17.90;79.00;;;;;;5051283;28;20471;-74
2023/06/27 00:28:50;;;;;;;2.67;1.00;;;17.90;79.10;;;;;;5051591;28;20429;-74
2023/06/27 00:31:16;;;;;;;10.53;1.27;;;17.80;79.30;;;;;;5059370;28;20196;-74
2023/06/27 00:33:42;;;;;;;2.10;1.00;;;17.70;79.50;;;;;;5059206;28;20607;-74
2023/06/27 00:36:07;;;;;;;2.90;1.40;;;17.60;80.20;;;;;;5051275;28;20513;-74
2023/06/27 00:38:33;;;;;;;5.87;1.13;;;17.60;80.50;;;;;;5051371;28;20186;-74
2023/06/27 00:40:59;;;;;;;2.27;1.13;;;17.50;81.60;;;;;;5051027;28;20224;-75
2023/06/27 00:43:28;;;;;;;3.30;1.23;;;17.40;82.70;;;;;;5050337;28;20272;-75
2023/06/27 00:45:53;;;;;;;2.53;0.90;;;17.30;83.50;;;;;;5051865;28;20822;-74
2023/06/27 00:48:19;;;;;;;7.57;1.47;;;17.20;84.50;;;;;;5051579;28;20436;-75
2023/06/27 00:50:45;;;;;;;2.37;1.50;;;17.10;85.20;;;;;;5051245;28;20204;-74
2023/06/27 00:53:11;;;;;;;9.93;1.43;;;17.00;85.50;;;;;;5050260;28;20181;-74
2023/06/27 00:55:39;;;;;;;4.50;0.90;;;16.90;85.90;;;;;;5051268;28;20428;-74
2023/06/27 00:58:06;;;;;;;11.53;1.67;;;16.90;85.40;;;;;;5051010;28;20539;-74
2023/06/27 01:00:32;;;;;;;5.03;1.67;;;16.90;84.90;;;;;;5050967;28;20420;-75
2023/06/27 01:02:57;;;;;;;4.10;1.27;;;16.90;84.70;;;;;;5050194;28;20450;-74
2023/06/27 01:05:24;;;;;;;2.57;1.10;;;16.90;84.10;;;;;;5050858;28;20178;-74
2023/06/27 01:07:56;;;;;;;2.50;1.07;;;16.90;84.40;;;;;;5056506;28;20523;-74
2023/06/27 01:10:21;;;;;;;2.33;0.90;;;16.90;84.10;;;;;;5062426;28;20426;-74
2023/06/27 01:13:15;;;;;;;6.43;1.47;;;16.90;84.00;;;;;;5050613;28;20412;-74
2023/06/27 01:15:40;;;;;;;6.60;1.37;;;16.90;84.30;;;;;;5050536;28;20186;-74
2023/06/27 01:18:08;;;;;;;2.90;1.37;;;16.90;84.30;;;;;;5059100;28;20416;-75
2023/06/27 01:20:34;;;;;;;3.83;1.13;;;17.00;84.40;;;;;;5053093;28;20622;-74
2023/06/27 01:23:00;;;;;;;3.80;1.70;;;16.90;84.20;;;;;;5050650;28;20511;-74
2023/06/27 01:25:27;;;;;;;3.63;1.37;;;16.90;84.20;;;;;;5050453;28;20527;-74
2023/06/27 01:27:53;;;;;;;3.57;1.27;;;16.90;84.20;;;;;;5051051;28;20177;-74
2023/06/27 01:30:19;;;;;;;3.37;1.50;;;16.90;83.90;;;;;;5051895;28;20718;-74
2023/06/27 01:33:01;;;;;;;2.63;1.53;;;16.90;84.20;;;;;;5055753;28;20268;-74
2023/06/27 01:35:58;;;;;;;3.90;1.10;;;17.00;84.20;;;;;;5050969;28;20182;-75
2023/06/27 01:38:32;;;;;;;6.40;1.17;;;17.10;84.30;;;;;;5038642;28;20961;-74
2023/06/27 01:40:59;;;;;;;2.23;1.10;;;17.10;84.40;;;;;;5049846;28;20452;-74
2023/06/27 01:43:27;;;;;;;1.93;0.80;;;17.10;84.30;;;;;;5049716;28;20897;-74
2023/06/27 01:45:54;;;;;;;3.43;1.67;;;17.10;84.30;;;;;;5032659;28;20514;-74
2023/06/27 01:48:20;;;;;;;3.07;0.87;;;17.10;84.20;;;;;;5050345;28;20834;-75
2023/06/27 01:50:46;;;;;;;12.23;1.80;;;17.10;84.30;;;;;;5050025;28;20519;-74
2023/06/27 01:53:12;;;;;;;2.47;1.17;;;17.10;83.70;;;;;;5049917;28;20820;-74
2023/06/27 01:55:37;;;;;;;1.93;1.10;;;17.10;84.20;;;;;;5050483;28;20674;-74
2023/06/27 01:58:03;;;;;;;2.67;1.27;;;17.10;84.60;;;;;;5050121;28;20186;-74
2023/06/27 02:00:29;;;;;;;12.27;1.70;;;17.10;84.70;;;;;;5050251;28;20196;-74
2023/06/27 02:02:54;;;;;;;6.17;1.70;;;17.20;83.90;;;;;;5050006;28;20658;-75
2023/06/27 02:05:20;;;;;;;4.17;1.00;;;17.10;83.80;;;;;;5052225;28;20517;-74
2023/06/27 02:07:45;;;;;;;2.33;0.93;;;17.10;84.00;;;;;;5059016;28;20208;-74
2023/06/27 02:10:11;;;;;;;4.57;1.20;;;17.10;84.20;;;;;;5065987;28;20571;-74
2023/06/27 02:12:37;;;;;;;3.50;1.77;;;17.10;84.40;;;;;;5054908;28;20677;-74
2023/06/27 02:15:03;;;;;;;3.30;0.80;;;17.10;85.30;;;;;;5054534;28;20199;-74
2023/06/27 02:17:28;;;;;;;4.97;1.20;;;17.10;83.50;;;;;;5057170;28;20204;-75
2023/06/27 02:19:54;;;;;;;5.67;1.73;;;17.10;83.40;;;;;;5062200;28;20209;-74
2023/06/27 02:22:20;;;;;;;2.90;1.30;;;17.10;83.50;;;;;;5053408;28;20197;-74
2023/06/27 02:24:45;;;;;;;6.13;1.20;;;17.10;84.10;;;;;;5054446;28;20186;-74
2023/06/27 02:27:12;;;;;;;5.33;1.23;;;17.10;84.70;;;;;;5053640;28;20212;-74
2023/06/27 02:29:38;;;;;;;3.40;0.90;;;17.00;83.60;;;;;;5054040;28;20260;-74
2023/06/27 02:32:04;;;;;;;3.10;1.33;;;17.00;83.30;;;;;;5061681;28;20551;-74
2023/06/27 02:34:30;;;;;;;3.83;1.40;;;17.00;84.00;;;;;;5049337;28;20197;-75
2023/06/27 02:36:55;;;;;;;4.37;1.10;;;16.90;84.00;;;;;;5050736;28;20812;-74
2023/06/27 02:39:21;;;;;;;6.67;1.97;;;16.90;84.50;;;;;;5052257;28;20189;-75
2023/06/27 02:41:46;;;;;;;6.37;1.33;;;16.90;84.50;;;;;;5053060;28;20196;-74
2023/06/27 02:44:12;;;;;;;3.00;0.90;;;16.80;84.70;;;;;;5052913;28;20208;-74
2023/06/27 02:46:38;;;;;;;3.40;1.33;;;16.80;84.90;;;;;;5053508;28;20202;-74
2023/06/27 02:49:03;;;;;;;3.30;1.17;;;16.80;85.10;;;;;;5054096;28;20204;-74
2023/06/27 02:51:29;;;;;;;2.33;1.37;;;16.70;85.10;;;;;;5052807;28;20943;-74
2023/06/27 02:53:54;;;;;;;3.47;1.03;;;16.70;85.00;;;;;;5053818;28;20185;-74
2023/06/27 02:56:20;;;;;;;8.27;1.60;;;16.70;85.40;;;;;;5053734;28;20268;-74
2023/06/27 02:58:45;;;;;;;3.77;1.47;;;16.70;85.30;;;;;;5053468;28;20228;-74
2023/06/27 03:01:11;;;;;;;7.20;1.67;;;16.70;85.30;;;;;;5053083;28;20182;-74
2023/06/27 03:03:37;;;;;;;1.90;1.00;;;16.70;85.50;;;;;;5053666;28;20186;-74
2023/06/27 03:06:06;;;;;;;7.23;2.20;;;16.70;85.50;;;;;;5058627;28;20205;-74
2023/06/27 03:08:32;;;;;;;6.83;1.97;;;16.70;85.50;;;;;;5062277;28;20634;-74
2023/06/27 03:10:58;;;;;;;1.93;0.97;;;16.70;85.80;;;;;;5063269;28;20423;-74
2023/06/27 03:13:24;;;;;;;2.70;1.03;;;16.60;85.90;;;;;;5053423;28;20210;-74
2023/06/27 03:15:50;;;;;;;4.63;1.57;;;16.60;85.90;;;;;;5052905;28;20188;-75
2023/06/27 03:18:16;;;;;;;3.17;1.50;;;16.60;86.50;;;;;;5062337;28;20769;-75
2023/06/27 03:20:41;;;;;;;5.47;1.17;;;16.60;86.30;;;;;;5054375;28;20182;-74
2023/06/27 03:23:07;;;;;;;4.70;1.93;;;16.50;86.40;;;;;;5052754;28;20178;-74
2023/06/27 03:25:32;;;;;;;3.33;1.00;;;16.50;86.50;;;;;;5052897;28;20269;-74
2023/06/27 03:27:59;;;;;;;3.10;1.33;;;16.50;86.40;;;;;;5052861;28;20182;-75
2023/06/27 03:30:24;;;;;;;2.80;0.90;;;16.50;86.30;;;;;;5036891;28;20201;-74
2023/06/27 03:32:50;;;;;;;3.23;1.10;;;16.50;86.30;;;;;;5064549;28;20463;-75
2023/06/27 03:35:16;;;;;;;2.40;1.20;;;16.50;86.40;;;;;;5036850;28;20185;-76
2023/06/27 03:37:41;;;;;;;3.00;1.60;;;16.40;86.20;;;;;;5052571;28;20182;-76
2023/06/27 03:40:07;;;;;;;7.20;1.83;;;16.40;86.30;;;;;;5050384;28;20184;-76
2023/06/27 03:42:33;;;;;;;2.60;1.20;;;16.40;86.60;;;;;;5042227;28;20680;-77
2023/06/27 03:44:59;;;;;;;8.20;1.50;;;16.50;86.40;;;;;;5050401;28;20538;-76
2023/06/27 03:47:24;;;;;;;5.43;1.00;;;16.50;86.70;;;;;;5052825;28;20212;-76
2023/06/27 03:49:50;;;;;;;3.10;1.17;;;16.50;86.90;;;;;;5052987;28;20215;-76
2023/06/27 03:52:16;;;;;;;3.03;1.60;;;16.40;87.00;;;;;;5052290;28;20201;-77
2023/06/27 03:54:41;;;;;;;4.07;1.10;;;16.50;87.30;;;;;;5052846;28;20669;-76
2023/06/27 03:57:07;;;;;;;2.17;0.93;;;16.50;87.60;;;;;;5052641;28;20537;-76
2023/06/27 03:59:32;;;;;;;3.23;1.03;;;16.40;86.80;;;;;;5052231;28;20186;-76
2023/06/27 04:01:58;;;;;;;4.40;0.90;;;16.40;87.10;;;;;;5051972;28;20185;-76
2023/06/27 04:04:25;;;;;;;2.43;1.13;;;16.40;87.00;;;;;;5052754;28;20209;-76
2023/06/27 04:06:51;;;;;;;5.10;1.00;;;16.50;88.30;;;;;;5052050;28;20214;-76
2023/06/27 04:09:16;;;;;;;3.57;1.03;;;16.50;89.00;;;;;;5061611;28;20476;-77
2023/06/27 04:11:42;;;;;;;3.03;1.60;;;16.50;88.60;;;;;;5060539;28;20174;-76
2023/06/27 04:14:09;;;;;;;4.53;1.10;;;16.40;89.30;;;;;;5051859;28;20233;-76
2023/06/27 04:16:34;;;;;;;1.83;0.97;;;16.40;89.60;;;;;;5050544;28;20505;-76
2023/06/27 04:19:00;;;;;;;3.90;1.47;;;16.30;90.30;;;;;;5048889;28;20217;-76
2023/06/27 04:21:26;;;;;;;2.67;1.23;;;16.30;90.30;;;;;;5051149;28;20203;-76
2023/06/27 04:23:54;;;;;;;1.90;1.00;;;16.40;90.10;;;;;;5052550;28;20190;-76
2023/06/27 04:26:19;;;;;;;5.13;1.67;;;16.30;90.10;;;;;;5052720;28;20463;-77
2023/06/27 04:28:47;;;;;;;4.03;0.87;;;16.40;90.10;;;;;;5052596;28;20425;-77
2023/06/27 04:31:13;;;;;;;3.30;1.30;;;16.40;90.30;;;;;;5061489;28;20271;-77
2023/06/27 04:33:42;;;;;;;2.40;0.87;;;16.40;90.10;;;;;;5056771;28;20952;-77
2023/06/27 04:36:08;;;;;;;3.20;1.10;;;16.50;88.70;;;;;;5053242;28;20732;-77
2023/06/27 04:38:38;;;;;;;2.23;1.00;;;16.50;87.30;;;;;;5054363;28;20510;-77
2023/06/27 04:41:08;;;;;;;3.23;1.33;;;16.50;89.00;;;;;;5052502;28;20428;-77
2023/06/27 04:43:34;;;;;;;3.40;1.20;;;16.60;88.30;;;;;;5052683;28;20478;-77
2023/06/27 04:46:00;;;;;;;5.47;0.90;;;16.60;89.10;;;;;;5052756;28;21019;-76
2023/06/27 04:48:26;;;;;;;3.33;1.03;;;16.60;89.40;;;;;;5052368;28;20178;-74
2023/06/27 04:50:52;;;;;;;4.73;1.07;;;16.70;88.70;;;;;;5051518;28;20416;-75
2023/06/27 04:53:19;;;;;;;3.00;1.23;;;16.70;87.40;;;;;;5049654;28;20414;-74
2023/06/27 04:55:46;;;;;;;2.50;1.00;;;16.70;86.70;;;;;;5045304;28;20201;-75
2023/06/27 04:58:11;;;;;;;2.90;1.00;;;16.70;86.20;;;;;;5049207;28;20451;-75
2023/06/27 05:00:37;;;;;;;4.20;1.10;;;16.70;86.40;;;;;;5050536;28;20917;-74
2023/06/27 05:03:03;;;;;;;2.13;0.93;;;16.80;87.40;;;;;;5051312;28;20263;-74
2023/06/27 05:05:32;;;;;;;2.03;1.10;;;16.80;87.40;;;;;;5051062;28;20654;-76
2023/06/27 05:08:03;;;;;;;2.40;1.23;;;16.80;86.90;;;;;;5057719;28;20618;-75
2023/06/27 05:10:32;;;;;;;1.90;1.00;;;16.90;85.70;;;;;;5061607;28;20976;-75
2023/06/27 05:12:58;;;;;;;3.50;1.50;;;16.80;85.00;;;;;;5050824;28;20431;-76
2023/06/27 05:15:24;;;;;;;2.80;1.40;;;16.80;85.40;;;;;;5050652;28;20426;-75
2023/06/27 05:18:15;;;;;;;1.60;0.70;;;16.80;86.00;;;;;;5057001;28;20428;-76
2023/06/27 05:20:41;;;;;;;2.50;1.27;;;16.80;85.30;;;;;;5032627;28;20443;-76
2023/06/27 05:23:07;;;;;;;7.13;1.50;;;16.90;85.40;;;;;;5046471;28;20550;-76
2023/06/27 05:25:33;;;;;;;4.57;0.93;;;16.90;85.40;;;;;;5044557;28;20889;-76
2023/06/27 05:27:59;;;;;;;2.67;0.90;;;16.90;85.50;;;;;;5051064;28;20586;-76
2023/06/27 05:30:28;;;;;;;5.60;1.73;;;16.90;85.20;;;;;;5052854;28;20420;-76
2023/06/27 05:32:54;;;;;;;9.70;1.67;;;16.90;85.30;;;;;;5062338;28;20183;-76
2023/06/27 05:35:21;;;;;;;2.83;1.03;;;16.90;84.70;;;;;;5051115;28;20495;-76
2023/06/27 05:37:47;;;;;;;2.63;1.00;;;17.00;85.60;;;;;;5044910;28;20444;-76
2023/06/27 05:40:13;;;;;;;2.03;1.03;;;17.00;85.50;;;;;;5049087;28;20978;-75
2023/06/27 05:42:42;;;;;;;1.77;0.90;;;17.00;85.70;;;;;;5043785;28;20512;-75
2023/06/27 05:45:08;;;;;;;2.57;1.37;;;17.00;85.50;;;;;;5047773;28;20439;-75
2023/06/27 05:47:34;;;;;;;7.13;1.93;;;17.00;85.70;;;;;;5049248;28;20472;-75
2023/06/27 05:49:59;;;;;;;21.57;1.40;;;17.10;85.40;;;;;;5049928;28;20427;-75
2023/06/27 05:52:25;;;;;;;4.03;1.47;;;17.10;85.10;;;;;;5051489;28;20332;-75
2023/06/27 05:54:51;;;;;;;3.50;1.40;;;17.10;85.20;;;;;;5049196;28;20181;-75
2023/06/27 05:57:18;;;;;;;1.77;0.90;;;17.20;85.80;;;;;;5049217;28;20181;-75
2023/06/27 05:59:43;;;;;;;2.77;1.27;;;17.20;85.20;;;;;;5048970;28;20182;-75
2023/06/27 06:02:09;;;;;;;9.20;1.40;;;17.30;86.00;;;;;;5049074;28;20424;-75
2023/06/27 06:04:35;;;;;;;3.43;1.30;;;17.30;85.50;;;;;;5049341;28;20204;-75
2023/06/27 06:07:03;;;;;;;3.73;1.40;;;17.40;86.10;;;;;;5048903;28;20617;-75
2023/06/27 06:09:30;;;;;;;3.53;1.37;;;17.50;85.90;;;;;;5057167;28;20181;-75
2023/06/27 06:11:56;;;;;;;5.90;1.27;;;17.50;85.30;;;;;;5048531;28;21035;-75
2023/06/27 06:14:21;;;;;;;3.20;1.10;;;17.50;85.40;;;;;;5045943;28;20543;-75
2023/06/27 06:16:47;;;;;;;1.70;0.90;;;17.60;85.40;;;;;;5048892;28;20419;-75
2023/06/27 06:19:13;;;;;;;4.30;1.80;;;17.60;84.70;;;;;;5045870;28;20197;-75
2023/06/27 06:21:39;;;;;;;4.00;1.70;;;17.60;85.20;;;;;;5048520;28;20231;-75
2023/06/27 06:24:05;;;;;;;2.23;1.20;;;17.70;84.50;;;;;;5049142;28;20193;-76
2023/06/27 06:26:30;;;;;;;4.87;1.70;;;17.80;85.40;;;;;;5049035;28;20217;-75
2023/06/27 06:28:56;;;;;;;3.03;1.50;;;17.90;85.60;;;;;;5049402;28;20527;-75
2023/06/27 06:31:24;;;;;;;5.30;1.07;;;17.90;84.90;;;;;;5060392;28;20748;-75
2023/06/27 06:33:50;;;;;;;3.27;1.03;;;18.00;83.70;;;;;;5057099;28;20178;-76
2023/06/27 06:36:15;;;;;;;5.30;1.27;;;18.10;83.30;;;;;;5048451;28;20428;-75
2023/06/27 06:38:41;;;;;;;2.37;1.17;;;18.20;82.90;;;;;;5048972;28;20259;-75
2023/06/27 06:41:07;;;;;;;5.00;1.27;;;18.20;82.40;;;;;;5048348;28;20208;-75
2023/06/27 06:43:32;;;;;;;1.50;0.80;;;18.30;82.40;;;;;;5047761;28;20186;-75
2023/06/27 06:45:59;;;;;;;1.40;0.60;;;18.40;82.50;;;;;;5048306;28;20213;-75
2023/06/27 06:48:24;;;;;;;1.70;1.00;;;18.50;81.20;;;;;;5049015;28;20193;-75
2023/06/27 06:50:51;;;;;;;3.60;1.23;;;18.60;79.40;;;;;;5048309;28;20408;-75
2023/06/27 06:53:20;;;;;;;3.70;1.30;;;18.50;79.70;;;;;;5051543;28;20229;-75
2023/06/27 06:55:46;;;;;;;4.73;1.43;;;18.60;79.00;;;;;;5052637;28;20817;-75
2023/06/27 06:58:12;;;;;;;4.63;1.43;;;18.70;78.70;;;;;;5052430;28;20416;-75
2023/06/27 07:00:38;;;;;;;1.97;0.90;;;18.90;76.30;;;;;;5051836;28;20424;-75
2023/06/27 07:03:05;;;;;;;1.90;1.00;;;18.90;77.60;;;;;;5052162;28;20174;-75
2023/06/27 07:05:30;;;;;;;1.50;0.70;;;18.90;76.60;;;;;;5052243;28;21160;-75
2023/06/27 07:07:56;;;;;;;3.87;1.63;;;18.80;77.50;;;;;;5051755;28;20559;-75
2023/06/27 07:10:22;;;;;;;1.70;0.83;;;19.00;76.70;;;;;;5062205;28;20187;-75
2023/06/27 07:12:48;;;;;;;2.13;1.13;;;19.20;74.40;;;;;;5051521;28;21306;-75
2023/06/27 07:15:15;;;;;;;1.70;0.93;;;19.40;74.10;;;;;;5051925;28;20697;-74
2023/06/27 07:17:41;;;;;;;3.67;1.33;;;19.50;73.70;;;;;;5043358;28;20512;-76
2023/06/27 07:20:08;;;;;;;1.50;0.67;;;19.70;70.80;;;;;;5058164;28;20430;-74
2023/06/27 07:22:34;;;;;;;2.87;1.30;;;19.80;71.70;;;;;;5038090;28;20273;-75
2023/06/27 07:25:00;;;;;;;2.13;1.00;;;20.00;70.60;;;;;;5033777;28;20507;-75
2023/06/27 07:27:26;;;;;;;2.60;1.20;;;20.30;70.80;;;;;;5052123;28;20245;-73
2023/06/27 07:29:51;;;;;;;8.63;1.37;;;20.40;69.70;;;;;;5056147;28;20242;-72
2023/06/27 07:32:17;;;;;;;4.00;1.27;;;20.40;69.00;;;;;;5063123;28;20641;-72
2023/06/27 07:34:42;;;;;;;4.60;1.00;;;20.00;70.70;;;;;;5052805;28;20181;-72
2023/06/27 07:37:08;;;;;;;1.60;0.80;;;20.20;71.40;;;;;;5052297;28;20182;-73
2023/06/27 07:39:33;;;;;;;1.90;1.07;;;20.60;72.00;;;;;;5054763;28;20248;-73
2023/06/27 07:41:59;;;;;;;3.27;1.30;;;20.50;70.10;;;;;;5051769;28;20182;-73
2023/06/27 07:44:25;;;;;;;3.40;1.40;;;20.30;71.80;;;;;;5050696;28;20607;-73
2023/06/27 07:46:51;;;;;;;2.13;1.07;;;20.40;71.60;;;;;;5052016;28;20255;-73
2023/06/27 07:49:17;;;;;;;5.00;1.10;;;20.90;71.30;;;;;;5047619;28;20181;-73
2023/06/27 07:51:43;;;;;;;2.90;1.07;;;21.00;69.90;;;;;;5051816;28;20536;-73
2023/06/27 07:54:09;;;;;;;5.20;1.10;;;20.90;69.70;;;;;;5052236;28;20419;-74
2023/06/27 07:56:35;;;;;;;3.57;1.50;;;21.00;69.70;;;;;;5051603;28;20412;-73
2023/06/27 07:59:02;;;;;;;3.93;1.37;;;21.40;68.10;;;;;;5051728;28;20411;-72
2023/06/27 08:01:28;;;;;;;10.47;1.40;;;22.20;66.70;;;;;;5032382;28;20453;-75
2023/06/27 08:03:53;;;;;;;3.10;1.23;;;22.40;66.10;;;;;;5050645;28;20426;-75
2023/06/27 08:06:19;;;;;;;3.80;1.27;;;22.50;65.50;;;;;;5050016;28;20884;-75
2023/06/27 08:08:45;;;;;;;8.93;1.27;;;23.50;63.30;;;;;;5059117;28;20212;-75
2023/06/27 08:11:10;;;;;;;3.87;1.50;;;23.80;62.80;;;;;;5060439;28;20177;-75
2023/06/27 08:13:41;;;;;;;2.63;1.27;;;24.20;63.70;;;;;;5050723;28;20231;-75
2023/06/27 08:16:10;;;;;;;6.50;1.40;;;23.60;62.60;;;;;;5047004;28;20177;-74
2023/06/27 08:18:35;;;;;;;4.63;1.90;;;22.80;63.70;;;;;;5046905;28;20419;-74
2023/06/27 08:21:01;;;;;;;2.43;1.20;;;22.50;64.00;;;;;;5049607;28;20462;-74
2023/06/27 08:23:27;;;;;;;4.07;1.60;;;22.10;65.10;;;;;;5050687;28;20268;-75
2023/06/27 08:25:54;;;;;;;2.00;0.97;;;21.70;65.90;;;;;;5050779;28;20280;-75
2023/06/27 08:28:20;;;;;;;2.27;1.33;;;21.40;67.70;;;;;;5050036;28;20671;-75
2023/06/27 08:30:46;;;;;;;36.90;1.77;;;21.40;67.40;;;;;;5055206;28;20422;-74
2023/06/27 08:33:11;;;;;;;3.97;1.70;;;21.40;67.30;;;;;;5061684;28;20415;-74
2023/06/27 08:35:38;;;;;;;16.87;1.77;;;21.00;68.00;;;;;;5050758;28;20634;-75
2023/06/27 08:38:04;;;;;;;2.70;1.10;;;21.40;69.30;;;;;;5050131;28;20186;-75
2023/06/27 08:40:35;;;;;;;2.60;1.30;;;21.90;67.60;;;;;;5050246;28;20423;-75
2023/06/27 08:43:01;;;;;;;21.87;2.57;;;23.00;65.50;;;;;;5046635;28;20426;-74
2023/06/27 08:45:27;;;;;;;6.93;1.30;;;23.40;64.30;;;;;;5049661;28;20440;-74
2023/06/27 08:47:53;;;;;;;4.10;2.00;;;24.00;63.00;;;;;;5050011;28;20212;-74
2023/06/27 08:50:21;;;;;;;2.17;1.20;;;23.90;61.20;;;;;;5050272;28;20178;-75
2023/06/27 08:52:57;;;;;;;3.63;1.53;;;24.10;61.70;;;;;;5049233;28;20232;-74
2023/06/27 08:55:32;;;;;;;3.07;1.30;;;24.30;62.10;;;;;;5050232;28;20239;-75
2023/06/27 08:57:58;;;;;;;3.27;1.27;;;24.70;60.70;;;;;;5049779;28;20173;-75
2023/06/27 09:00:26;;;;;;;4.45;1.00;;;25.10;59.60;;;;;;5049846;28;20209;-75
2023/06/27 09:02:52;;;;;;;6.72;1.33;;;25.20;58.20;;;;;;5049417;28;20260;-74
2023/06/27 09:05:19;;;;;;;3.27;1.40;;;25.20;58.20;;;;;;5047069;28;20186;-74
2023/06/27 09:07:44;;;;;;;5.83;1.20;;;24.60;60.20;;;;;;5045035;28;20279;-74
2023/06/27 09:10:10;;;;;;;3.47;1.47;;;23.80;61.10;;;;;;5046426;28;20188;-74
2023/06/27 09:12:39;;;;;;;6.60;1.53;;;22.90;62.50;;;;;;5049082;28;20185;-74
2023/06/27 09:15:05;;;;;;;2.83;1.53;;;22.40;63.30;;;;;;5048733;28;20189;-74
2023/06/27 09:17:31;;;;;;;3.20;1.00;;;22.30;64.80;;;;;;5052897;28;20466;-74
2023/06/27 09:19:57;;;;;;;10.00;2.23;;;22.30;64.30;;;;;;5054455;28;20432;-74
2023/06/27 09:22:26;;;;;;;3.30;1.53;;;22.60;64.70;;;;;;5042787;28;20438;-74
2023/06/27 09:25:15;;;;;;;2.20;1.30;;;22.80;64.70;;;;;;5046328;28;20204;-74
2023/06/27 09:27:42;;;;;;;3.73;1.37;;;22.80;62.70;;;;;;5049269;28;20960;-74
2023/06/27 09:30:11;;;;;;;4.07;1.37;;;23.10;64.00;;;;;;5049232;28;20928;-74
2023/06/27 09:32:56;;;;;;;14.27;1.73;;;23.20;62.60;;;;;;5043589;28;20434;-74
2023/06/27 09:35:23;;;;;;;5.40;1.43;;;23.10;62.90;;;;;;5050058;28;20415;-75
2023/06/27 09:37:50;;;;;;;4.87;1.20;;;23.20;63.10;;;;;;5042870;28;21206;-74
2023/06/27 09:40:21;;;;;;;3.67;1.10;;;23.70;61.60;;;;;;5048534;28;20522;-74
2023/06/27 09:42:57;;;;;;;3.60;1.37;;;23.80;61.50;;;;;;5047047;28;20423;-74
2023/06/27 09:45:24;;;;;;;4.07;1.20;;;23.70;60.40;;;;;;5048833;28;20450;-74
2023/06/27 09:47:50;;;;;;;5.30;1.00;;;23.50;60.80;;;;;;5049208;28;20467;-74
2023/06/27 09:50:17;;;;;;;4.23;0.90;;;23.30;60.50;;;;;;5049478;28;20590;-74
2023/06/27 09:52:51;;;;;;;2.47;1.20;;;23.40;60.50;;;;;;5053099;28;20569;-75
2023/06/27 09:55:20;;;;;;;2.97;1.30;;;23.40;58.90;;;;;;5049200;28;20423;-75
2023/06/27 09:57:47;;;;;;;3.50;1.40;;;23.30;58.40;;;;;;5048645;28;20423;-75
2023/06/27 10:00:14;;;;;;;5.40;1.20;;;23.30;59.30;;;;;;5048665;28;21000;-75
2023/06/27 10:02:41;;;;;;;3.50;0.90;;;23.40;58.90;;;;;;5048597;28;20422;-74
2023/06/27 10:05:08;;;;;;;2.83;1.37;;;23.60;60.40;;;;;;5048464;28;20455;-74
2023/06/27 10:07:34;;;;;;;2.87;1.20;;;23.60;60.40;;;;;;5051069;28;20985;-74
2023/06/27 10:10:00;;;;;;;2.53;1.47;;;23.30;61.60;;;;;;5060929;28;20559;-74
2023/06/27 10:12:26;;;;;;;6.13;2.10;;;23.30;61.60;;;;;;5050693;28;20499;-74
2023/06/27 10:14:53;;;;;;;2.43;0.90;;;23.00;62.50;;;;;;5049045;28;20189;-74
2023/06/27 10:17:19;;;;;;;2.30;1.37;;;23.00;63.30;;;;;;5050626;28;20738;-74
2023/06/27 10:19:46;;;;;;;7.70;1.37;;;23.10;62.00;;;;;;5058569;28;20447;-75
2023/06/27 10:22:17;;;;;;;2.90;1.20;;;23.20;61.50;;;;;;5047683;28;21183;-74
2023/06/27 10:24:44;;;;;;;4.20;1.30;;;23.40;61.10;;;;;;5048564;28;20416;-75
2023/06/27 10:27:13;;;;;;;2.67;1.10;;;23.30;61.30;;;;;;5049892;28;20558;-74
2023/06/27 10:29:42;;;;;;;6.50;1.70;;;23.40;59.70;;;;;;5052406;28;20541;-75
2023/06/27 10:32:15;;;;;;;5.40;1.57;;;23.10;62.20;;;;;;5059536;28;20418;-74
2023/06/27 10:34:44;;;;;;;3.17;1.07;;;23.00;60.40;;;;;;5059459;28;20419;-71
2023/06/27 10:37:26;;;;;;;1.90;1.17;;;23.00;60.10;;;;;;5045970;28;20494;-71
2023/06/27 10:40:07;;;;;;;3.40;1.20;;;23.10;60.50;;;;;;5051823;28;20466;-74
2023/06/27 10:42:32;;;;;;;3.20;1.20;;;23.20;59.80;;;;;;5050425;28;20423;-74
2023/06/27 10:45:07;;;;;;;2.73;1.17;;;23.10;61.10;;;;;;5049593;28;20446;-74
2023/06/27 10:47:43;;;;;;;2.17;1.13;;;23.20;59.90;;;;;;5052282;28;20200;-75
2023/06/27 10:50:14;;;;;;;4.60;1.20;;;23.40;59.50;;;;;;5052171;28;21089;-74
2023/06/27 10:52:59;;;;;;;2.67;1.40;;;23.70;59.00;;;;;;5050629;28;20438;-74
2023/06/27 10:55:29;;;;;;;7.03;1.63;;;23.30;59.80;;;;;;5051925;28;20453;-74
2023/06/27 10:58:09;;;;;;;3.10;1.27;;;23.30;59.50;;;;;;5051177;28;20426;-74
2023/06/27 11:00:40;;;;;;;4.53;1.40;;;23.40;60.60;;;;;;5051070;28;20418;-74
2023/06/27 11:03:08;;;;;;;2.10;1.20;;;23.60;61.20;;;;;;5039042;28;20411;-74
2023/06/27 11:05:42;;;;;;;5.97;1.67;;;23.70;60.20;;;;;;5051574;28;20425;-75
2023/06/27 11:08:13;;;;;;;3.23;1.30;;;23.60;59.90;;;;;;5059299;28;20471;-74
2023/06/27 11:10:49;;;;;;;3.40;1.30;;;23.60;59.70;;;;;;5061368;28;20411;-74
2023/06/27 11:13:26;;;;;;;2.23;1.10;;;23.40;60.40;;;;;;5050897;28;20437;-74
2023/06/27 11:15:53;;;;;;;12.53;1.90;;;23.50;61.20;;;;;;5032845;28;20944;-74
2023/06/27 11:18:21;;;;;;;2.03;1.07;;;23.70;59.50;;;;;;5061250;28;20908;-74
2023/06/27 11:20:49;;;;;;;4.40;1.60;;;23.50;60.50;;;;;;5051428;28;20424;-74
2023/06/27 11:23:16;;;;;;;5.97;1.93;;;23.30;61.20;;;;;;5050149;28;20970;-74
2023/06/27 11:25:44;;;;;;;3.73;1.30;;;23.20;61.10;;;;;;5033381;28;20435;-74
2023/06/27 11:28:11;;;;;;;3.40;1.70;;;23.30;60.40;;;;;;5051009;28;20948;-74
2023/06/27 11:30:37;;;;;;;2.83;1.37;;;23.40;60.60;;;;;;5044718;28;20419;-74
2023/06/27 11:33:03;;;;;;;2.20;1.10;;;23.00;61.70;;;;;;5062882;28;20452;-74
2023/06/27 11:35:31;;;;;;;6.70;1.60;;;22.80;62.10;;;;;;5051420;28;20427;-74
2023/06/27 11:37:56;;;;;;;2.47;0.90;;;22.80;63.20;;;;;;5049946;28;21245;-74
2023/06/27 11:40:26;;;;;;;5.87;1.90;;;22.90;61.40;;;;;;5051543;28;20427;-74
2023/06/27 11:43:06;;;;;;;5.60;1.30;;;23.00;61.80;;;;;;5049648;28;20268;-74
2023/06/27 11:45:33;;;;;;;8.10;1.67;;;23.30;62.50;;;;;;5051570;28;20439;-74
2023/06/27 11:48:00;;;;;;;1.93;0.97;;;23.50;60.40;;;;;;5052234;28;20521;-74
2023/06/27 11:50:25;;;;;;;1.80;1.00;;;23.70;60.20;;;;;;5052745;28;20420;-74
2023/06/27 11:52:52;;;;;;;2.10;1.10;;;23.70;59.60;;;;;;5051699;28;20482;-74
2023/06/27 11:55:17;;;;;;;14.53;1.20;;;23.90;61.30;;;;;;5052427;28;20203;-74
2023/06/27 11:57:54;;;;;;;3.47;1.33;;;24.10;60.40;;;;;;5052303;28;20908;-74
2023/06/27 12:00:24;;;;;;;2.40;1.10;;;24.10;59.90;;;;;;5052489;28;20183;-74
2023/06/27 12:03:03;;;;;;;5.30;1.40;;;24.10;62.10;;;;;;5052154;28;20428;-73
2023/06/27 12:05:29;;;;;;;2.03;1.10;;;23.90;61.20;;;;;;5052348;28;20419;-73
2023/06/27 12:08:03;;;;;;;3.30;1.20;;;24.00;60.90;;;;;;5038750;28;20467;-74
2023/06/27 12:10:33;;;;;;;2.60;1.00;;;24.00;60.50;;;;;;5052146;28;20235;-74
2023/06/27 12:13:04;;;;;;;3.63;1.60;;;23.80;60.50;;;;;;5052585;28;20447;-74
2023/06/27 12:15:29;;;;;;;2.20;1.33;;;23.70;61.20;;;;;;5052148;28;20940;-74
2023/06/27 12:18:01;;;;;;;6.43;1.50;;;23.70;60.20;;;;;;5058802;28;20513;-74
2023/06/27 12:20:40;;;;;;;1.70;1.17;;;24.00;59.70;;;;;;5060508;28;20185;-74
2023/06/27 12:23:07;;;;;;;6.10;1.43;;;23.70;60.00;;;;;;5054600;28;20908;-74
2023/06/27 12:25:32;;;;;;;2.53;1.47;;;23.80;59.70;;;;;;5051594;28;20442;-69
2023/06/27 12:27:58;;;;;;;2.87;1.30;;;24.00;60.90;;;;;;5052420;28;20538;-69
2023/06/27 12:30:24;;;;;;;19.73;1.67;;;24.00;59.70;;;;;;5055210;28;20174;-69
2023/06/27 12:32:49;;;;;;;3.40;1.30;;;23.80;61.10;;;;;;5060033;28;20177;-69
2023/06/27 12:35:18;;;;;;;3.90;1.30;;;23.80;59.90;;;;;;5054112;28;20525;-69
2023/06/27 12:37:46;;;;;;;2.60;1.40;;;23.70;59.90;;;;;;5052127;28;20192;-69
2023/06/27 12:40:15;;;;;;;3.63;1.10;;;23.60;60.40;;;;;;5051748;28;20439;-69
2023/06/27 12:42:41;;;;;;;2.37;1.10;;;23.50;62.10;;;;;;5050828;28;20443;-69
2023/06/27 12:45:07;;;;;;;5.80;1.20;;;23.50;61.00;;;;;;5052075;28;20446;-69
2023/06/27 12:47:33;;;;;;;1.60;0.87;;;23.80;61.50;;;;;;5051763;28;20455;-69